sensor_id;sensor_type;location;lat;lon;timestamp;pressure;altitude;pressure_sealevel;temperature;humidity
68822;BME280;55834;50.870;4.606;2023-03-03T00:00:55;101640.09;;;0.61;58.97
68822;BME280;55834;50.870;4.606;2023-03-03T00:03:22;101637.84;;;1.07;57.70
68822;BME280;55834;50.870;4.606;2023-03-03T00:05:49;101651.91;;;0.18;59.06
68822;BME280;55834;50.870;4.606;2023-03-03T00:08:15;101654.06;;;0.33;59.79
68822;BME280;55834;50.870;4.606;2023-03-03T00:10:40;101649.75;;;0.65;58.89
68822;BME280;55834;50.870;4.606;2023-03-03T00:13:18;101654.94;;;-0.25;63.01
68822;BME280;55834;50.870;4.606;2023-03-03T00:15:44;101653.16;;;0.03;62.29
68822;BME280;55834;50.870;4.606;2023-03-03T00:18:17;101664.47;;;0.05;60.25
68822;BME280;55834;50.870;4.606;2023-03-03T00:20:48;101663.78;;;-0.73;63.34
68822;BME280;55834;50.870;4.606;2023-03-03T00:25:58;101659.72;;;0.20;60.07
68822;BME280;55834;50.870;4.606;2023-03-03T00:28:32;101664.31;;;0.59;57.98
68822;BME280;55834;50.870;4.606;2023-03-03T00:31:16;101670.69;;;-0.99;62.76
68822;BME280;55834;50.870;4.606;2023-03-03T00:33:49;101664.91;;;-0.10;61.26
68822;BME280;55834;50.870;4.606;2023-03-03T00:36:32;101667.28;;;-1.23;63.95
68822;BME280;55834;50.870;4.606;2023-03-03T00:39:33;101664.53;;;-0.50;63.61
68822;BME280;55834;50.870;4.606;2023-03-03T00:42:00;101664.09;;;-0.36;61.71
68822;BME280;55834;50.870;4.606;2023-03-03T00:47:35;101660.66;;;-0.35;61.91
68822;BME280;55834;50.870;4.606;2023-03-03T00:52:33;101673.50;;;-1.90;65.98
68822;BME280;55834;50.870;4.606;2023-03-03T00:54:59;101663.16;;;-1.66;66.64
68822;BME280;55834;50.870;4.606;2023-03-03T00:57:24;101658.16;;;-0.32;61.88
68822;BME280;55834;50.870;4.606;2023-03-03T00:59:49;101656.81;;;-0.48;62.51
68822;BME280;55834;50.870;4.606;2023-03-03T01:02:15;101655.25;;;-0.14;61.56
68822;BME280;55834;50.870;4.606;2023-03-03T01:04:40;101660.22;;;0.07;58.68
68822;BME280;55834;50.870;4.606;2023-03-03T01:07:08;101662.81;;;-0.22;60.75
68822;BME280;55834;50.870;4.606;2023-03-03T01:09:33;101654.34;;;-0.44;60.94
68822;BME280;55834;50.870;4.606;2023-03-03T01:11:58;101655.50;;;-0.62;61.68
68822;BME280;55834;50.870;4.606;2023-03-03T01:14:24;101658.09;;;-0.62;62.57
68822;BME280;55834;50.870;4.606;2023-03-03T01:16:49;101662.53;;;-0.85;63.84
68822;BME280;55834;50.870;4.606;2023-03-03T01:19:14;101670.44;;;-0.81;63.32
68822;BME280;55834;50.870;4.606;2023-03-03T01:21:40;101671.84;;;-0.09;60.46
68822;BME280;55834;50.870;4.606;2023-03-03T01:24:05;101675.66;;;-2.01;67.22
68822;BME280;55834;50.870;4.606;2023-03-03T01:26:30;101682.44;;;-1.58;66.38
68822;BME280;55834;50.870;4.606;2023-03-03T01:28:56;101674.72;;;-1.57;66.63
68822;BME280;55834;50.870;4.606;2023-03-03T01:31:21;101666.69;;;-1.64;66.47
68822;BME280;55834;50.870;4.606;2023-03-03T01:33:46;101672.69;;;-1.88;66.66
68822;BME280;55834;50.870;4.606;2023-03-03T01:36:12;101684.13;;;-2.71;68.41
68822;BME280;55834;50.870;4.606;2023-03-03T01:38:38;101681.75;;;-1.76;68.96
68822;BME280;55834;50.870;4.606;2023-03-03T01:41:04;101677.81;;;-1.43;64.63
68822;BME280;55834;50.870;4.606;2023-03-03T01:43:31;101681.53;;;-1.83;65.46
68822;BME280;55834;50.870;4.606;2023-03-03T01:50:56;101682.88;;;-1.46;65.37
68822;BME280;55834;50.870;4.606;2023-03-03T01:53:33;101684.97;;;-1.84;66.63
68822;BME280;55834;50.870;4.606;2023-03-03T01:56:02;101683.78;;;-2.14;67.89
68822;BME280;55834;50.870;4.606;2023-03-03T01:58:34;101679.47;;;-2.36;68.03
68822;BME280;55834;50.870;4.606;2023-03-03T02:01:03;101669.66;;;-1.29;65.29
68822;BME280;55834;50.870;4.606;2023-03-03T02:03:30;101680.91;;;-2.43;68.90
68822;BME280;55834;50.870;4.606;2023-03-03T02:06:00;101675.06;;;-1.94;67.67
68822;BME280;55834;50.870;4.606;2023-03-03T02:08:40;101670.31;;;-1.09;65.70
68822;BME280;55834;50.870;4.606;2023-03-03T02:11:07;101668.38;;;-0.91;64.05
68822;BME280;55834;50.870;4.606;2023-03-03T02:13:32;101676.91;;;-1.67;66.38
68822;BME280;55834;50.870;4.606;2023-03-03T02:15:58;101667.28;;;-1.71;66.95
68822;BME280;55834;50.870;4.606;2023-03-03T02:18:24;101660.56;;;-1.42;65.73
68822;BME280;55834;50.870;4.606;2023-03-03T02:21:03;101659.22;;;-1.31;65.22
68822;BME280;55834;50.870;4.606;2023-03-03T02:26:27;101659.41;;;-1.01;63.50
68822;BME280;55834;50.870;4.606;2023-03-03T02:28:53;101653.03;;;-0.85;62.34
68822;BME280;55834;50.870;4.606;2023-03-03T02:31:21;101657.53;;;-1.30;63.92
68822;BME280;55834;50.870;4.606;2023-03-03T02:33:49;101658.25;;;-0.83;64.26
68822;BME280;55834;50.870;4.606;2023-03-03T02:36:17;101655.53;;;-0.61;62.91
68822;BME280;55834;50.870;4.606;2023-03-03T02:38:48;101657.72;;;-0.73;62.20
68822;BME280;55834;50.870;4.606;2023-03-03T02:42:26;101663.69;;;-1.27;64.25
68822;BME280;55834;50.870;4.606;2023-03-03T02:44:22;101675.44;;;-2.07;68.02
68822;BME280;55834;50.870;4.606;2023-03-03T02:46:49;101667.16;;;-1.01;66.88
68822;BME280;55834;50.870;4.606;2023-03-03T02:49:19;101666.78;;;-1.37;67.32
68822;BME280;55834;50.870;4.606;2023-03-03T02:51:46;101676.88;;;-1.91;68.89
68822;BME280;55834;50.870;4.606;2023-03-03T02:54:13;101668.41;;;-1.15;67.99
68822;BME280;55834;50.870;4.606;2023-03-03T02:56:39;101653.81;;;-0.60;66.44
68822;BME280;55834;50.870;4.606;2023-03-03T02:59:04;101661.72;;;-0.29;64.40
68822;BME280;55834;50.870;4.606;2023-03-03T03:01:31;101666.25;;;-0.50;62.57
68822;BME280;55834;50.870;4.606;2023-03-03T03:04:03;101668.09;;;-0.73;63.35
68822;BME280;55834;50.870;4.606;2023-03-03T03:06:30;101671.47;;;-0.49;64.24
68822;BME280;55834;50.870;4.606;2023-03-03T03:08:55;101668.41;;;-0.37;62.83
68822;BME280;55834;50.870;4.606;2023-03-03T03:11:20;101675.59;;;0.00;62.88
68822;BME280;55834;50.870;4.606;2023-03-03T03:13:45;101660.69;;;0.23;62.65
68822;BME280;55834;50.870;4.606;2023-03-03T03:16:11;101665.09;;;0.56;61.54
68822;BME280;55834;50.870;4.606;2023-03-03T03:18:36;101661.78;;;0.32;60.16
68822;BME280;55834;50.870;4.606;2023-03-03T03:21:13;101659.28;;;-0.24;62.38
68822;BME280;55834;50.870;4.606;2023-03-03T03:23:39;101665.25;;;-0.27;62.52
68822;BME280;55834;50.870;4.606;2023-03-03T03:26:05;101665.00;;;0.23;61.79
68822;BME280;55834;50.870;4.606;2023-03-03T03:28:31;101663.63;;;0.06;60.72
68822;BME280;55834;50.870;4.606;2023-03-03T03:30:57;101668.31;;;0.17;61.30
68822;BME280;55834;50.870;4.606;2023-03-03T03:33:23;101667.94;;;0.35;61.03
68822;BME280;55834;50.870;4.606;2023-03-03T03:35:48;101674.50;;;0.21;59.43
68822;BME280;55834;50.870;4.606;2023-03-03T03:38:15;101678.19;;;-0.82;64.87
68822;BME280;55834;50.870;4.606;2023-03-03T03:40:41;101676.50;;;0.01;63.43
68822;BME280;55834;50.870;4.606;2023-03-03T03:43:06;101681.78;;;-1.28;64.91
68822;BME280;55834;50.870;4.606;2023-03-03T03:45:32;101684.41;;;-1.03;65.48
68822;BME280;55834;50.870;4.606;2023-03-03T03:47:57;101690.97;;;-0.61;65.30
68822;BME280;55834;50.870;4.606;2023-03-03T03:50:22;101702.97;;;-0.91;64.72
68822;BME280;55834;50.870;4.606;2023-03-03T03:52:48;101690.03;;;-0.63;63.35
68822;BME280;55834;50.870;4.606;2023-03-03T03:55:13;101699.50;;;-1.15;63.64
68822;BME280;55834;50.870;4.606;2023-03-03T03:57:39;101699.03;;;-1.29;65.25
68822;BME280;55834;50.870;4.606;2023-03-03T04:00:06;101705.25;;;-3.01;70.43
68822;BME280;55834;50.870;4.606;2023-03-03T04:02:32;101711.44;;;-2.34;69.09
68822;BME280;55834;50.870;4.606;2023-03-03T04:04:58;101706.97;;;-1.95;68.12
68822;BME280;55834;50.870;4.606;2023-03-03T04:07:23;101706.09;;;-2.16;69.93
68822;BME280;55834;50.870;4.606;2023-03-03T04:09:48;101698.16;;;-2.64;69.78
68822;BME280;55834;50.870;4.606;2023-03-03T04:12:14;101705.25;;;-1.72;69.05
68822;BME280;55834;50.870;4.606;2023-03-03T04:14:39;101696.38;;;-1.30;65.73
68822;BME280;55834;50.870;4.606;2023-03-03T04:17:04;101707.72;;;-1.51;66.31
68822;BME280;55834;50.870;4.606;2023-03-03T04:19:30;101704.91;;;-1.33;66.71
68822;BME280;55834;50.870;4.606;2023-03-03T04:21:55;101698.66;;;-0.64;65.09
68822;BME280;55834;50.870;4.606;2023-03-03T04:24:20;101702.13;;;-0.64;63.44
68822;BME280;55834;50.870;4.606;2023-03-03T04:26:45;101711.91;;;-2.44;67.83
68822;BME280;55834;50.870;4.606;2023-03-03T04:29:11;101715.50;;;-2.62;69.35
68822;BME280;55834;50.870;4.606;2023-03-03T04:31:36;101715.94;;;-2.51;70.81
68822;BME280;55834;50.870;4.606;2023-03-03T04:34:01;101713.16;;;-2.56;71.85
68822;BME280;55834;50.870;4.606;2023-03-03T04:36:27;101714.06;;;-1.89;69.69
68822;BME280;55834;50.870;4.606;2023-03-03T04:38:52;101714.41;;;-1.58;68.00
68822;BME280;55834;50.870;4.606;2023-03-03T04:41:18;101718.09;;;-2.62;70.44
68822;BME280;55834;50.870;4.606;2023-03-03T04:43:44;101717.53;;;-2.11;71.21
68822;BME280;55834;50.870;4.606;2023-03-03T04:46:09;101713.59;;;-1.08;68.25
68822;BME280;55834;50.870;4.606;2023-03-03T04:48:34;101705.09;;;-0.52;68.63
68822;BME280;55834;50.870;4.606;2023-03-03T04:51:00;101712.25;;;-0.17;66.44
68822;BME280;55834;50.870;4.606;2023-03-03T04:53:25;101712.94;;;-0.50;63.69
68822;BME280;55834;50.870;4.606;2023-03-03T04:55:51;101719.53;;;-0.06;63.23
68822;BME280;55834;50.870;4.606;2023-03-03T04:58:17;101724.22;;;-0.75;64.53
68822;BME280;55834;50.870;4.606;2023-03-03T05:00:52;101726.09;;;-0.97;64.32
68822;BME280;55834;50.870;4.606;2023-03-03T05:03:18;101726.03;;;-0.73;62.95
68822;BME280;55834;50.870;4.606;2023-03-03T05:05:45;101723.38;;;-0.49;62.61
68822;BME280;55834;50.870;4.606;2023-03-03T05:08:11;101742.63;;;-1.41;62.77
68822;BME280;55834;50.870;4.606;2023-03-03T05:10:37;101741.25;;;-2.00;67.25
68822;BME280;55834;50.870;4.606;2023-03-03T05:13:03;101744.38;;;-2.51;69.78
68822;BME280;55834;50.870;4.606;2023-03-03T05:15:29;101751.09;;;-2.56;69.79
68822;BME280;55834;50.870;4.606;2023-03-03T05:17:55;101750.63;;;-3.27;71.68
68822;BME280;55834;50.870;4.606;2023-03-03T05:20:22;101759.44;;;-2.83;70.62
68822;BME280;55834;50.870;4.606;2023-03-03T05:22:47;101745.94;;;-2.34;69.00
68822;BME280;55834;50.870;4.606;2023-03-03T05:25:13;101745.78;;;-1.95;67.76
68822;BME280;55834;50.870;4.606;2023-03-03T05:27:38;101742.38;;;-1.71;67.65
68822;BME280;55834;50.870;4.606;2023-03-03T05:30:04;101735.34;;;-1.96;68.93
68822;BME280;55834;50.870;4.606;2023-03-03T05:32:30;101737.44;;;-1.41;66.19
68822;BME280;55834;50.870;4.606;2023-03-03T05:34:55;101738.72;;;-1.06;64.02
68822;BME280;55834;50.870;4.606;2023-03-03T05:37:20;101745.72;;;-2.19;66.58
68822;BME280;55834;50.870;4.606;2023-03-03T05:39:47;101749.41;;;-2.12;67.74
68822;BME280;55834;50.870;4.606;2023-03-03T05:42:13;101747.72;;;-1.67;66.74
68822;BME280;55834;50.870;4.606;2023-03-03T05:44:38;101751.31;;;-1.63;66.00
68822;BME280;55834;50.870;4.606;2023-03-03T05:47:04;101749.41;;;-1.45;66.48
68822;BME280;55834;50.870;4.606;2023-03-03T05:49:29;101745.59;;;-1.06;64.16
68822;BME280;55834;50.870;4.606;2023-03-03T05:51:55;101747.91;;;-2.07;66.13
68822;BME280;55834;50.870;4.606;2023-03-03T05:54:20;101754.88;;;-1.82;66.76
68822;BME280;55834;50.870;4.606;2023-03-03T05:56:45;101760.38;;;-1.28;65.01
68822;BME280;55834;50.870;4.606;2023-03-03T05:59:11;101769.84;;;-2.81;68.48
68822;BME280;55834;50.870;4.606;2023-03-03T06:01:36;101762.72;;;-1.81;68.31
68822;BME280;55834;50.870;4.606;2023-03-03T06:04:02;101755.00;;;-1.79;67.19
68822;BME280;55834;50.870;4.606;2023-03-03T06:06:27;101769.88;;;-2.18;65.99
68822;BME280;55834;50.870;4.606;2023-03-03T06:08:52;101775.13;;;-2.98;69.84
68822;BME280;55834;50.870;4.606;2023-03-03T06:11:18;101769.38;;;-2.31;69.41
68822;BME280;55834;50.870;4.606;2023-03-03T06:13:44;101766.69;;;-1.90;67.51
68822;BME280;55834;50.870;4.606;2023-03-03T06:16:09;101773.78;;;-1.16;65.29
68822;BME280;55834;50.870;4.606;2023-03-03T06:18:34;101774.81;;;-1.12;63.30
68822;BME280;55834;50.870;4.606;2023-03-03T06:21:00;101781.13;;;-1.50;65.34
68822;BME280;55834;50.870;4.606;2023-03-03T06:23:25;101775.78;;;-1.08;63.85
68822;BME280;55834;50.870;4.606;2023-03-03T06:25:51;101779.69;;;-0.96;63.29
68822;BME280;55834;50.870;4.606;2023-03-03T06:28:18;101779.72;;;-0.70;62.07
68822;BME280;55834;50.870;4.606;2023-03-03T06:30:44;101777.03;;;-0.22;61.73
68822;BME280;55834;50.870;4.606;2023-03-03T06:33:10;101783.97;;;-0.98;61.87
68822;BME280;55834;50.870;4.606;2023-03-03T06:35:35;101787.63;;;-1.15;63.63
68822;BME280;55834;50.870;4.606;2023-03-03T06:38:01;101775.25;;;-0.49;63.58
68822;BME280;55834;50.870;4.606;2023-03-03T06:40:26;101789.72;;;-0.30;61.42
68822;BME280;55834;50.870;4.606;2023-03-03T06:42:52;101794.06;;;-1.04;62.69
68822;BME280;55834;50.870;4.606;2023-03-03T06:45:17;101797.13;;;-0.92;63.69
68822;BME280;55834;50.870;4.606;2023-03-03T06:47:42;101800.19;;;-1.26;65.01
68822;BME280;55834;50.870;4.606;2023-03-03T06:50:11;101807.03;;;-2.78;68.60
68822;BME280;55834;50.870;4.606;2023-03-03T06:52:37;101803.25;;;-1.36;66.75
68822;BME280;55834;50.870;4.606;2023-03-03T06:55:11;101809.63;;;-1.50;64.64
68822;BME280;55834;50.870;4.606;2023-03-03T06:57:37;101813.09;;;-1.27;65.68
68822;BME280;55834;50.870;4.606;2023-03-03T07:00:22;101820.41;;;-0.93;62.21
68822;BME280;55834;50.870;4.606;2023-03-03T07:03:00;101826.16;;;-1.24;62.45
68822;BME280;55834;50.870;4.606;2023-03-03T07:05:30;101840.16;;;-3.08;67.54
68822;BME280;55834;50.870;4.606;2023-03-03T07:07:57;101835.88;;;-3.45;70.24
68822;BME280;55834;50.870;4.606;2023-03-03T07:10:26;101840.69;;;-3.34;71.01
68822;BME280;55834;50.870;4.606;2023-03-03T07:12:52;101842.94;;;-3.03;70.09
68822;BME280;55834;50.870;4.606;2023-03-03T07:15:34;101844.59;;;-3.43;72.36
68822;BME280;55834;50.870;4.606;2023-03-03T07:18:00;101846.19;;;-2.68;68.29
68822;BME280;55834;50.870;4.606;2023-03-03T07:20:35;101856.34;;;-2.13;65.84
68822;BME280;55834;50.870;4.606;2023-03-03T07:23:31;101866.34;;;-2.81;66.98
68822;BME280;55834;50.870;4.606;2023-03-03T07:26:12;101867.56;;;-2.92;68.76
68822;BME280;55834;50.870;4.606;2023-03-03T07:28:43;101858.28;;;-3.06;68.23
68822;BME280;55834;50.870;4.606;2023-03-03T07:31:40;101864.44;;;-2.65;67.05
68822;BME280;55834;50.870;4.606;2023-03-03T07:34:31;101857.97;;;-2.15;65.85
68822;BME280;55834;50.870;4.606;2023-03-03T07:37:01;101865.22;;;-2.28;65.95
68822;BME280;55834;50.870;4.606;2023-03-03T07:39:37;101868.66;;;-2.67;68.84
68822;BME280;55834;50.870;4.606;2023-03-03T07:44:53;101873.03;;;-2.26;64.58
68822;BME280;55834;50.870;4.606;2023-03-03T07:47:29;101869.63;;;-1.83;66.40
68822;BME280;55834;50.870;4.606;2023-03-03T07:49:57;101880.47;;;-3.49;70.21
68822;BME280;55834;50.870;4.606;2023-03-03T07:52:39;101872.09;;;-1.86;67.66
68822;BME280;55834;50.870;4.606;2023-03-03T07:58:05;101885.00;;;-2.28;68.48
68822;BME280;55834;50.870;4.606;2023-03-03T08:03:43;101895.63;;;-1.59;64.91
68822;BME280;55834;50.870;4.606;2023-03-03T08:06:34;101889.13;;;-1.49;64.40
68822;BME280;55834;50.870;4.606;2023-03-03T08:11:51;101898.72;;;-1.47;66.30
68822;BME280;55834;50.870;4.606;2023-03-03T08:14:24;101901.13;;;-1.29;63.72
68822;BME280;55834;50.870;4.606;2023-03-03T08:16:51;101899.97;;;-1.37;64.65
68822;BME280;55834;50.870;4.606;2023-03-03T08:19:17;101897.91;;;-1.23;64.95
68822;BME280;55834;50.870;4.606;2023-03-03T08:21:42;101911.09;;;-2.82;67.07
68822;BME280;55834;50.870;4.606;2023-03-03T08:24:08;101903.94;;;-1.45;64.23
68822;BME280;55834;50.870;4.606;2023-03-03T08:26:36;101917.84;;;-2.66;67.70
68822;BME280;55834;50.870;4.606;2023-03-03T08:29:02;101913.91;;;-2.58;68.45
68822;BME280;55834;50.870;4.606;2023-03-03T08:31:27;101901.44;;;-1.44;65.49
68822;BME280;55834;50.870;4.606;2023-03-03T08:33:53;101912.47;;;-2.11;65.60
68822;BME280;55834;50.870;4.606;2023-03-03T08:36:19;101912.31;;;-1.52;63.50
68822;BME280;55834;50.870;4.606;2023-03-03T08:38:44;101922.19;;;-2.26;65.57
68822;BME280;55834;50.870;4.606;2023-03-03T08:41:10;101922.81;;;-2.71;68.77
68822;BME280;55834;50.870;4.606;2023-03-03T08:43:36;101924.31;;;-2.56;68.32
68822;BME280;55834;50.870;4.606;2023-03-03T08:46:02;101914.00;;;-1.74;66.05
68822;BME280;55834;50.870;4.606;2023-03-03T08:48:30;101919.50;;;-1.66;64.70
68822;BME280;55834;50.870;4.606;2023-03-03T08:50:55;101925.75;;;-2.03;66.45
68822;BME280;55834;50.870;4.606;2023-03-03T08:53:22;101928.41;;;-1.60;65.46
68822;BME280;55834;50.870;4.606;2023-03-03T08:55:47;101923.72;;;-2.10;65.58
68822;BME280;55834;50.870;4.606;2023-03-03T08:58:14;101938.75;;;-2.01;67.00
68822;BME280;55834;50.870;4.606;2023-03-03T09:00:40;101932.63;;;-1.62;64.13
68822;BME280;55834;50.870;4.606;2023-03-03T09:03:06;101938.06;;;-1.97;64.84
68822;BME280;55834;50.870;4.606;2023-03-03T09:05:33;101934.97;;;-1.89;66.27
68822;BME280;55834;50.870;4.606;2023-03-03T09:08:00;101937.09;;;-2.20;67.40
68822;BME280;55834;50.870;4.606;2023-03-03T09:10:27;101943.09;;;-2.21;68.05
68822;BME280;55834;50.870;4.606;2023-03-03T09:12:54;101940.63;;;-1.78;67.38
68822;BME280;55834;50.870;4.606;2023-03-03T09:15:36;101938.81;;;-0.92;63.45
68822;BME280;55834;50.870;4.606;2023-03-03T09:18:19;101946.47;;;-1.40;64.64
68822;BME280;55834;50.870;4.606;2023-03-03T09:20:52;101943.47;;;-1.28;63.58
68822;BME280;55834;50.870;4.606;2023-03-03T09:25:52;101949.91;;;-0.50;62.68
68822;BME280;55834;50.870;4.606;2023-03-03T09:28:44;101953.75;;;-0.14;59.56
68822;BME280;55834;50.870;4.606;2023-03-03T09:31:35;101954.00;;;-0.32;60.40
68822;BME280;55834;50.870;4.606;2023-03-03T09:34:02;101961.56;;;-1.51;62.68
68822;BME280;55834;50.870;4.606;2023-03-03T09:36:37;101960.50;;;-1.13;63.05
68822;BME280;55834;50.870;4.606;2023-03-03T09:39:21;101969.41;;;-2.11;65.12
68822;BME280;55834;50.870;4.606;2023-03-03T09:44:46;101958.47;;;-1.63;65.68
68822;BME280;55834;50.870;4.606;2023-03-03T09:47:38;101972.97;;;-2.47;65.05
68822;BME280;55834;50.870;4.606;2023-03-03T09:55:49;101958.34;;;-0.79;60.08
68822;BME280;55834;50.870;4.606;2023-03-03T10:01:32;101964.59;;;-0.74;61.43
68822;BME280;55834;50.870;4.606;2023-03-03T10:10:01;101974.00;;;-1.84;64.49
68822;BME280;55834;50.870;4.606;2023-03-03T10:15:28;101983.03;;;-0.89;60.79
68822;BME280;55834;50.870;4.606;2023-03-03T10:18:15;101982.25;;;-1.09;62.46
68822;BME280;55834;50.870;4.606;2023-03-03T10:21:00;101983.56;;;-0.05;60.12
68822;BME280;55834;50.870;4.606;2023-03-03T10:23:53;101981.00;;;-1.19;62.31
68822;BME280;55834;50.870;4.606;2023-03-03T10:26:47;101982.03;;;-0.46;60.88
68822;BME280;55834;50.870;4.606;2023-03-03T10:32:07;101980.22;;;-1.16;62.53
68822;BME280;55834;50.870;4.606;2023-03-03T10:37:46;101983.09;;;0.07;59.50
68822;BME280;55834;50.870;4.606;2023-03-03T10:43:40;101967.28;;;0.52;59.29
68822;BME280;55834;50.870;4.606;2023-03-03T10:46:18;101968.22;;;1.08;57.68
68822;BME280;55834;50.870;4.606;2023-03-03T10:54:49;101965.66;;;1.10;58.11
68822;BME280;55834;50.870;4.606;2023-03-03T11:00:28;101964.53;;;1.02;57.57
68822;BME280;55834;50.870;4.606;2023-03-03T11:08:23;101976.69;;;0.23;58.82
68822;BME280;55834;50.870;4.606;2023-03-03T11:11:10;101983.75;;;-1.37;63.03
68822;BME280;55834;50.870;4.606;2023-03-03T11:16:39;101973.19;;;-0.03;60.36
68822;BME280;55834;50.870;4.606;2023-03-03T11:24:43;101981.66;;;-0.33;59.77
68822;BME280;55834;50.870;4.606;2023-03-03T11:27:34;101984.00;;;-0.16;60.56
68822;BME280;55834;50.870;4.606;2023-03-03T11:35:43;101980.31;;;0.03;61.16
68822;BME280;55834;50.870;4.606;2023-03-03T11:45:48;101966.47;;;0.02;60.11
68822;BME280;55834;50.870;4.606;2023-03-03T11:53:49;101958.97;;;0.64;59.73
68822;BME280;55834;50.870;4.606;2023-03-03T11:56:27;101953.13;;;1.25;55.89
68822;BME280;55834;50.870;4.606;2023-03-03T11:59:01;101954.59;;;1.17;55.97
68822;BME280;55834;50.870;4.606;2023-03-03T12:01:50;101951.91;;;1.74;55.54
68822;BME280;55834;50.870;4.606;2023-03-03T12:04:26;101968.53;;;-0.13;60.08
68822;BME280;55834;50.870;4.606;2023-03-03T12:07:29;101954.53;;;1.14;58.06
68822;BME280;55834;50.870;4.606;2023-03-03T12:13:10;101943.72;;;1.94;53.90
68822;BME280;55834;50.870;4.606;2023-03-03T12:18:52;101946.91;;;1.20;55.73
68822;BME280;55834;50.870;4.606;2023-03-03T12:21:48;101945.63;;;0.79;56.59
68822;BME280;55834;50.870;4.606;2023-03-03T12:35:33;101932.19;;;1.52;56.71
68822;BME280;55834;50.870;4.606;2023-03-03T12:40:45;101927.94;;;1.54;54.68
68822;BME280;55834;50.870;4.606;2023-03-03T12:43:43;101921.38;;;2.35;54.01
68822;BME280;55834;50.870;4.606;2023-03-03T12:46:21;101925.34;;;2.21;52.51
68822;BME280;55834;50.870;4.606;2023-03-03T12:48:49;101931.94;;;0.05;58.39
68822;BME280;55834;50.870;4.606;2023-03-03T12:51:20;101929.13;;;1.67;54.15
68822;BME280;55834;50.870;4.606;2023-03-03T12:56:39;101914.97;;;1.26;56.86
68822;BME280;55834;50.870;4.606;2023-03-03T13:04:52;101916.22;;;3.15;51.29
68822;BME280;55834;50.870;4.606;2023-03-03T13:10:38;101929.75;;;0.98;54.97
68822;BME280;55834;50.870;4.606;2023-03-03T13:13:23;101909.22;;;2.01;54.29
68822;BME280;55834;50.870;4.606;2023-03-03T13:16:04;101905.97;;;3.23;51.21
68822;BME280;55834;50.870;4.606;2023-03-03T13:23:57;101899.50;;;3.06;50.16
68822;BME280;55834;50.870;4.606;2023-03-03T13:26:42;101904.16;;;2.09;52.94
68822;BME280;55834;50.870;4.606;2023-03-03T13:29:14;101900.66;;;2.81;52.34
68822;BME280;55834;50.870;4.606;2023-03-03T13:37:19;101900.34;;;3.05;51.17
68822;BME280;55834;50.870;4.606;2023-03-03T13:39:53;101900.81;;;3.25;50.31
68822;BME280;55834;50.870;4.606;2023-03-03T13:45:00;101896.44;;;0.85;56.21
68822;BME280;55834;50.870;4.606;2023-03-03T13:54:01;101891.09;;;1.72;54.07
68822;BME280;55834;50.870;4.606;2023-03-03T14:01:36;101876.78;;;3.91;49.31
68822;BME280;55834;50.870;4.606;2023-03-03T14:04:30;101885.59;;;2.30;52.90
68822;BME280;55834;50.870;4.606;2023-03-03T14:07:13;101877.84;;;3.52;50.31
68822;BME280;55834;50.870;4.606;2023-03-03T14:09:47;101881.78;;;3.77;48.73
68822;BME280;55834;50.870;4.606;2023-03-03T14:12:39;101878.69;;;2.69;51.21
68822;BME280;55834;50.870;4.606;2023-03-03T14:15:27;101873.91;;;1.79;54.55
68822;BME280;55834;50.870;4.606;2023-03-03T14:20:30;101870.25;;;3.66;49.66
68822;BME280;55834;50.870;4.606;2023-03-03T14:23:31;101860.72;;;4.20;48.95
68822;BME280;55834;50.870;4.606;2023-03-03T14:28:42;101882.97;;;1.60;55.22
68822;BME280;55834;50.870;4.606;2023-03-03T14:31:23;101874.16;;;1.25;57.15
68822;BME280;55834;50.870;4.606;2023-03-03T14:34:01;101866.66;;;2.37;54.01
68822;BME280;55834;50.870;4.606;2023-03-03T14:36:31;101865.44;;;2.22;53.71
68822;BME280;55834;50.870;4.606;2023-03-03T14:38:57;101871.47;;;1.52;55.11
68822;BME280;55834;50.870;4.606;2023-03-03T14:41:38;101866.88;;;2.85;52.53
68822;BME280;55834;50.870;4.606;2023-03-03T14:44:25;101864.56;;;2.22;52.85
68822;BME280;55834;50.870;4.606;2023-03-03T14:49:33;101872.53;;;1.93;52.61
68822;BME280;55834;50.870;4.606;2023-03-03T14:54:55;101867.81;;;3.30;49.62
68822;BME280;55834;50.870;4.606;2023-03-03T15:05:23;101862.09;;;2.66;52.10
68822;BME280;55834;50.870;4.606;2023-03-03T15:07:56;101860.41;;;3.09;50.54
68822;BME280;55834;50.870;4.606;2023-03-03T15:10:28;101849.88;;;3.47;50.51
68822;BME280;55834;50.870;4.606;2023-03-03T15:12:56;101855.97;;;3.96;48.63
68822;BME280;55834;50.870;4.606;2023-03-03T15:15:24;101858.28;;;3.32;50.55
68822;BME280;55834;50.870;4.606;2023-03-03T15:20:22;101849.81;;;2.60;52.91
68822;BME280;55834;50.870;4.606;2023-03-03T15:29:06;101839.22;;;2.15;53.69
68822;BME280;55834;50.870;4.606;2023-03-03T15:31:45;101839.09;;;2.10;53.99
68822;BME280;55834;50.870;4.606;2023-03-03T15:43:13;101827.22;;;3.94;50.13
68822;BME280;55834;50.870;4.606;2023-03-03T15:48:36;101836.38;;;3.71;50.50
68822;BME280;55834;50.870;4.606;2023-03-03T16:04:35;101820.53;;;3.61;50.32
68822;BME280;55834;50.870;4.606;2023-03-03T16:12:48;101826.16;;;3.83;50.21
68822;BME280;55834;50.870;4.606;2023-03-03T16:20:43;101831.03;;;3.65;50.88
68822;BME280;55834;50.870;4.606;2023-03-03T16:23:29;101839.38;;;3.44;51.72
68822;BME280;55834;50.870;4.606;2023-03-03T16:28:58;101842.13;;;2.28;53.63
68822;BME280;55834;50.870;4.606;2023-03-03T16:37:06;101831.63;;;3.98;49.49
68822;BME280;55834;50.870;4.606;2023-03-03T16:39:52;101844.44;;;2.93;51.93
68822;BME280;55834;50.870;4.606;2023-03-03T16:42:32;101838.59;;;3.49;50.61
68822;BME280;55834;50.870;4.606;2023-03-03T16:45:32;101830.94;;;3.58;50.25
68822;BME280;55834;50.870;4.606;2023-03-03T16:53:38;101834.16;;;3.44;51.14
68822;BME280;55834;50.870;4.606;2023-03-03T17:07:04;101851.22;;;3.72;50.47
68822;BME280;55834;50.870;4.606;2023-03-03T17:09:50;101859.03;;;3.25;51.72
68822;BME280;55834;50.870;4.606;2023-03-03T17:12:45;101859.84;;;3.22;51.21
68822;BME280;55834;50.870;4.606;2023-03-03T17:18:13;101857.84;;;3.54;50.69
68822;BME280;55834;50.870;4.606;2023-03-03T17:31:50;101880.03;;;3.31;51.75
68822;BME280;55834;50.870;4.606;2023-03-03T17:45:29;101878.84;;;3.60;50.76